createdAt,value
2022-11-06T00:00:12.025Z,73.2
2022-11-06T00:01:15.527Z,73.2
2022-11-06T00:02:22.529Z,73.2
2022-11-06T00:03:27.079Z,73.2
2022-11-06T00:04:30.428Z,73.4
2022-11-06T00:05:33.850Z,73.4
2022-11-06T00:06:36.962Z,73.3
2022-11-06T00:07:40.616Z,73.4
2022-11-06T00:08:43.180Z,73.3
2022-11-06T00:09:46.446Z,73.4
2022-11-06T00:10:48.890Z,73.3
2022-11-06T00:11:52.157Z,73.3
2022-11-06T00:12:54.701Z,73.3
2022-11-06T00:13:57.979Z,73.3
2022-11-06T00:15:00.415Z,73.3
2022-11-06T00:16:03.423Z,73.3
2022-11-06T00:17:06.273Z,73.2
2022-11-06T00:18:09.611Z,73.2
2022-11-06T00:19:13.783Z,73.2
2022-11-06T00:20:18.018Z,73.2
2022-11-06T00:21:20.737Z,73.2
2022-11-06T00:22:24.100Z,73.2
2022-11-06T00:23:27.548Z,73.2
2022-11-06T00:24:30.772Z,73.1
2022-11-06T00:25:33.302Z,73.2
2022-11-06T00:26:36.934Z,73.3
2022-11-06T00:27:39.729Z,73.3
2022-11-06T00:28:42.622Z,73.3
2022-11-06T00:29:45.816Z,73.2
2022-11-06T00:30:48.609Z,73.3
2022-11-06T00:31:51.143Z,73.3
2022-11-06T00:32:53.952Z,73.3
2022-11-06T00:33:57.096Z,73.2
2022-11-06T00:34:59.889Z,73.3
2022-11-06T00:36:03.244Z,73.3
2022-11-06T00:37:06.648Z,73.3
2022-11-06T00:38:09.171Z,73.4
2022-11-06T00:39:13.637Z,73.3
2022-11-06T00:40:17.201Z,73.5
2022-11-06T00:41:20.194Z,73.5
2022-11-06T00:42:23.464Z,73.4
2022-11-06T00:43:26.827Z,73.4
2022-11-06T00:44:29.398Z,73.4
2022-11-06T00:45:32.661Z,73.4
2022-11-06T00:46:36.044Z,73.4
2022-11-06T00:47:39.027Z,73.6
2022-11-06T00:48:41.951Z,73.6
2022-11-06T00:49:45.692Z,73.5
2022-11-06T00:50:49.549Z,73.5
2022-11-06T00:51:51.713Z,73.4
2022-11-06T00:52:54.862Z,73.4
2022-11-06T00:53:58.894Z,73.4
2022-11-06T00:55:02.366Z,73.4
2022-11-06T00:56:05.186Z,73.4
2022-11-06T00:57:08.811Z,73.4
2022-11-06T00:58:13.446Z,73.3
2022-11-06T00:59:17.590Z,73.4
2022-11-06T01:00:20.619Z,73.5
2022-11-06T01:01:24.972Z,73.5
2022-11-06T01:02:29.544Z,73.4
2022-11-06T01:03:32.314Z,73.3
2022-11-06T01:04:35.519Z,73.3
2022-11-06T01:05:38.970Z,73.2
2022-11-06T01:06:42.083Z,73.1
2022-11-06T01:07:45.439Z,73.1
2022-11-06T01:08:48.424Z,73.4
2022-11-06T01:09:51.631Z,73.3
2022-11-06T01:10:54.728Z,73.2
2022-11-06T01:12:15.751Z,73.2
2022-11-06T01:13:18.657Z,73.1
2022-11-06T01:14:20.908Z,73.1
2022-11-06T01:15:24.286Z,73.1
2022-11-06T01:16:27.396Z,73.2
2022-11-06T01:17:29.932Z,73.2
2022-11-06T01:18:32.463Z,73.3
2022-11-06T01:19:35.468Z,73.2
2022-11-06T01:20:38.471Z,73.3
2022-11-06T01:21:41.830Z,73.2
2022-11-06T01:22:44.961Z,73.2
2022-11-06T01:23:47.404Z,73.2
2022-11-06T01:24:50.673Z,73.2
2022-11-06T01:25:54.262Z,73.2
2022-11-06T01:27:28.382Z,73.4
2022-11-06T01:28:32.086Z,73.5
2022-11-06T01:29:35.471Z,73.5
2022-11-06T01:30:38.928Z,73.6
2022-11-06T01:31:42.192Z,73.7
2022-11-06T01:32:45.092Z,73.7
2022-11-06T01:33:48.224Z,73.7
2022-11-06T01:34:51.403Z,73.8
2022-11-06T01:35:53.997Z,73.9
2022-11-06T01:36:57.078Z,74.1
2022-11-06T01:38:00.769Z,74
2022-11-06T01:39:04.115Z,74.1
2022-11-06T01:40:06.551Z,74.1
2022-11-06T01:41:10.045Z,74
2022-11-06T01:42:13.441Z,73.9
2022-11-06T01:43:16.523Z,73.9
2022-11-06T01:44:20.180Z,73.9
2022-11-06T01:45:22.341Z,73.9
2022-11-06T01:46:24.855Z,73.9
2022-11-06T01:47:28.589Z,73.9
2022-11-06T01:48:31.169Z,74
2022-11-06T01:49:34.434Z,73.9
2022-11-06T01:50:37.515Z,73.8
2022-11-06T01:51:40.321Z,73.8
2022-11-06T01:52:43.978Z,73.8
2022-11-06T01:53:46.872Z,74.1
2022-11-06T01:54:49.402Z,74
2022-11-06T01:55:52.687Z,73.9
2022-11-06T01:56:55.588Z,73.9
2022-11-06T01:57:59.051Z,73.8
2022-11-06T01:59:01.488Z,73.8
2022-11-06T02:00:05.176Z,73.8
2022-11-06T02:01:08.356Z,73.8
2022-11-06T02:02:11.769Z,73.8
2022-11-06T02:03:15.506Z,73.9
2022-11-06T02:04:19.299Z,73.8
2022-11-06T02:05:23.053Z,73.8
2022-11-06T02:06:25.617Z,73.8
2022-11-06T02:07:28.506Z,73.8
2022-11-06T02:08:31.302Z,74
2022-11-06T02:09:34.513Z,74
2022-11-06T02:10:37.505Z,73.9
2022-11-06T02:11:40.310Z,74
2022-11-06T02:12:43.138Z,73.9
2022-11-06T02:13:46.962Z,73.8
2022-11-06T02:14:49.833Z,74
2022-11-06T02:15:53.378Z,74
2022-11-06T02:16:56.526Z,74
2022-11-06T02:17:59.820Z,73.9
2022-11-06T02:19:02.372Z,73.9
2022-11-06T02:20:05.233Z,73.9
2022-11-06T02:21:08.517Z,74
2022-11-06T02:22:10.752Z,74
2022-11-06T02:23:13.308Z,74
2022-11-06T02:24:16.122Z,74
2022-11-06T02:25:19.296Z,74.1
2022-11-06T02:26:22.417Z,74.1
2022-11-06T02:27:24.941Z,74.2
2022-11-06T02:28:27.488Z,74.2
2022-11-06T02:29:30.933Z,74.1
2022-11-06T02:30:34.365Z,74.1
2022-11-06T02:31:37.554Z,74.2
2022-11-06T02:32:40.831Z,74.1
2022-11-06T02:33:44.306Z,74
2022-11-06T02:34:47.668Z,74.2
2022-11-06T02:35:50.739Z,74.2
2022-11-06T02:36:53.799Z,74.2
2022-11-06T02:37:57.544Z,74.2
2022-11-06T02:39:01.108Z,74.2
2022-11-06T02:40:03.626Z,74.2
2022-11-06T02:41:06.992Z,74.2
2022-11-06T02:42:08.947Z,74.3
2022-11-06T02:43:11.749Z,74.3
2022-11-06T02:44:14.218Z,74.3
2022-11-06T02:45:17.823Z,74.3
2022-11-06T02:46:20.829Z,74.3
2022-11-06T02:47:24.001Z,74.3
2022-11-06T02:48:27.520Z,74.2
2022-11-06T02:49:30.810Z,74.3
2022-11-06T02:50:33.635Z,74.3
2022-11-06T02:51:36.790Z,74.3
2022-11-06T02:52:39.387Z,74.3
2022-11-06T02:53:41.928Z,74.3
2022-11-06T02:54:45.350Z,74.4
2022-11-06T02:55:48.786Z,74.4
2022-11-06T02:56:51.667Z,74.4
2022-11-06T02:57:54.748Z,74.3
2022-11-06T02:58:57.619Z,74.3
2022-11-06T03:00:01.091Z,74.3
2022-11-06T03:01:04.742Z,74.4
2022-11-06T03:02:08.500Z,74.4
2022-11-06T03:03:11.883Z,74.4
2022-11-06T03:04:14.571Z,74.4
2022-11-06T03:05:17.379Z,74.4
2022-11-06T03:06:20.830Z,74.4
2022-11-06T03:07:23.746Z,74.5
2022-11-06T03:08:26.187Z,74.4
2022-11-06T03:09:28.983Z,74.4
2022-11-06T03:10:31.714Z,74.4
2022-11-06T03:11:34.154Z,74.5
2022-11-06T03:12:37.314Z,74.5
2022-11-06T03:13:40.377Z,74.6
2022-11-06T03:14:42.627Z,74.6
2022-11-06T03:15:45.569Z,74.7
2022-11-06T03:16:48.676Z,74.7
2022-11-06T03:17:51.748Z,74.6
2022-11-06T03:18:54.959Z,74.6
2022-11-06T03:19:57.687Z,74.5
2022-11-06T03:21:00.769Z,74.6
2022-11-06T03:22:04.510Z,74.6
2022-11-06T03:23:08.261Z,74.5
2022-11-06T03:24:11.474Z,74.6
2022-11-06T03:25:14.275Z,74.5
2022-11-06T03:26:17.785Z,74.5
2022-11-06T03:27:20.977Z,74.7
2022-11-06T03:28:24.367Z,74.7
2022-11-06T03:29:27.189Z,74.6
2022-11-06T03:30:30.176Z,74.7
2022-11-06T03:31:33.020Z,74.7
2022-11-06T03:32:36.761Z,74.7
2022-11-06T03:33:39.861Z,74.7
2022-11-06T03:34:43.959Z,74.7
2022-11-06T03:35:46.679Z,74.7
2022-11-06T03:36:49.760Z,74.8
2022-11-06T03:37:53.227Z,74.7
2022-11-06T03:38:56.042Z,74.8
2022-11-06T03:39:58.583Z,74.7
2022-11-06T03:41:01.643Z,74.7
2022-11-06T03:42:05.211Z,74.8
2022-11-06T03:43:08.041Z,74.8
2022-11-06T03:44:11.250Z,74.8
2022-11-06T03:45:13.687Z,74.9
2022-11-06T03:46:16.747Z,75
2022-11-06T03:47:19.595Z,75
2022-11-06T03:48:22.790Z,75
2022-11-06T03:49:25.867Z,74.9
2022-11-06T03:50:29.474Z,75
2022-11-06T03:51:32.267Z,75.1
2022-11-06T03:52:35.146Z,75.2
2022-11-06T03:53:38.459Z,75.2
2022-11-06T03:54:41.908Z,75.2
2022-11-06T03:55:43.879Z,75.3
2022-11-06T03:56:46.875Z,75.3
2022-11-06T03:57:49.983Z,75.2
2022-11-06T03:58:54.255Z,75.3
2022-11-06T03:59:57.771Z,75.3
2022-11-06T04:01:01.126Z,75.3
2022-11-06T04:02:04.848Z,75.4
2022-11-06T04:03:08.481Z,75.4
2022-11-06T04:04:12.164Z,75.3
2022-11-06T04:05:14.940Z,75.3
2022-11-06T04:06:18.094Z,75.4
2022-11-06T04:07:21.074Z,75.5
2022-11-06T04:08:23.528Z,75.5
2022-11-06T04:09:26.744Z,75.5
2022-11-06T04:10:29.842Z,75.6
2022-11-06T04:11:32.632Z,75.6
2022-11-06T04:12:35.341Z,75.7
2022-11-06T04:13:38.447Z,75.7
2022-11-06T04:14:41.428Z,75.8
2022-11-06T04:15:44.683Z,75.8
2022-11-06T04:16:47.477Z,75.9
2022-11-06T04:17:50.555Z,76
2022-11-06T04:18:53.647Z,76.2
2022-11-06T04:19:57.372Z,76.1
2022-11-06T04:21:00.461Z,76.1
2022-11-06T04:22:04.128Z,76.2
2022-11-06T04:23:07.507Z,76.2
2022-11-06T04:24:10.757Z,76.1
2022-11-06T04:25:14.125Z,76.2
2022-11-06T04:26:17.105Z,76.4
2022-11-06T04:27:20.109Z,76.3
2022-11-06T04:28:23.462Z,76.3
2022-11-06T04:29:27.184Z,76.3
2022-11-06T04:30:29.968Z,76.4
2022-11-06T04:31:33.272Z,76.5
2022-11-06T04:32:36.914Z,76.5
2022-11-06T04:33:39.982Z,76.6
2022-11-06T04:34:42.268Z,76.5
2022-11-06T04:35:45.739Z,76.7
2022-11-06T04:36:49.020Z,76.6
2022-11-06T04:37:52.188Z,76.8
2022-11-06T04:38:54.339Z,76.8
2022-11-06T04:39:57.245Z,76.7
2022-11-06T04:41:00.346Z,76.7
2022-11-06T04:42:02.856Z,76.6
2022-11-06T04:43:05.366Z,76.7
2022-11-06T04:44:08.603Z,76.6
2022-11-06T04:45:11.695Z,76.6
2022-11-06T04:46:14.843Z,76.6
2022-11-06T04:47:17.521Z,76.7
2022-11-06T04:48:20.595Z,76.7
2022-11-06T04:49:23.668Z,76.6
2022-11-06T04:50:25.928Z,76.7
2022-11-06T04:51:29.713Z,76.6
2022-11-06T04:52:32.501Z,76.7
2022-11-06T04:53:36.264Z,76.7
2022-11-06T04:54:39.066Z,76.8
2022-11-06T04:55:41.859Z,76.8
2022-11-06T04:56:48.108Z,76.8
2022-11-06T04:57:51.452Z,76.9
2022-11-06T04:58:54.557Z,77.1
2022-11-06T04:59:58.092Z,77.2
2022-11-06T05:01:01.739Z,77.2
2022-11-06T05:02:05.673Z,77.1
2022-11-06T05:03:09.604Z,77.3
2022-11-06T05:04:12.697Z,77.3
2022-11-06T05:05:15.489Z,77.4
2022-11-06T05:06:19.237Z,77.4
2022-11-06T05:07:22.145Z,77.5
2022-11-06T05:08:25.411Z,77.6
2022-11-06T05:09:29.136Z,77.6
2022-11-06T05:10:32.762Z,77.6
2022-11-06T05:11:35.221Z,77.6
2022-11-06T05:12:38.403Z,77.5
2022-11-06T05:13:40.287Z,77.4
2022-11-06T05:14:43.476Z,77.4
2022-11-06T05:15:46.821Z,77.5
2022-11-06T05:16:49.996Z,77.5
2022-11-06T05:17:53.373Z,77.5
2022-11-06T05:18:56.735Z,77.4
2022-11-06T05:20:00.171Z,77.5
2022-11-06T05:21:03.239Z,77.4
2022-11-06T05:22:06.075Z,77.3
2022-11-06T05:23:09.522Z,77.3
2022-11-06T05:24:12.025Z,77.3
2022-11-06T05:25:14.997Z,77.4
2022-11-06T05:26:18.404Z,77.4
2022-11-06T05:27:20.851Z,77.5
2022-11-06T05:28:23.866Z,77.3
2022-11-06T05:29:26.391Z,77.3
2022-11-06T05:30:29.212Z,77.4
2022-11-06T05:31:31.149Z,77.4
2022-11-06T05:32:33.429Z,77.4
2022-11-06T05:33:35.958Z,77.3
2022-11-06T05:34:39.132Z,77.3
2022-11-06T05:35:42.222Z,77.2
2022-11-06T05:36:45.289Z,77.3
2022-11-06T05:37:48.416Z,77.2
2022-11-06T05:38:51.788Z,77.1
2022-11-06T05:39:54.034Z,77.1
2022-11-06T05:40:57.219Z,77
2022-11-06T05:42:00.858Z,77
2022-11-06T05:43:04.228Z,77
2022-11-06T05:44:07.351Z,76.9
2022-11-06T05:45:10.428Z,77.1
2022-11-06T05:46:50.818Z,77.1
2022-11-06T05:47:53.949Z,77.1
2022-11-06T05:48:56.685Z,77.1
2022-11-06T05:49:59.855Z,77.1
2022-11-06T05:51:02.291Z,77
2022-11-06T05:52:06.019Z,77
2022-11-06T05:53:09.032Z,77
2022-11-06T05:54:12.520Z,76.9
2022-11-06T05:55:16.596Z,76.9
2022-11-06T05:56:19.703Z,77
2022-11-06T05:57:22.762Z,77
2022-11-06T05:58:26.154Z,76.9
2022-11-06T05:59:28.619Z,77
2022-11-06T06:00:31.772Z,77
2022-11-06T06:01:35.558Z,77
2022-11-06T06:02:39.883Z,77
2022-11-06T06:03:43.546Z,77
2022-11-06T06:04:46.507Z,77
2022-11-06T06:05:50.253Z,77.2
2022-11-06T06:06:52.571Z,77.3
2022-11-06T06:07:56.035Z,77.5
2022-11-06T06:08:59.106Z,77.7
2022-11-06T06:10:02.307Z,77.7
2022-11-06T06:11:05.371Z,78.2
2022-11-06T06:12:08.667Z,78.1
2022-11-06T06:13:11.372Z,78.3
2022-11-06T06:14:14.543Z,78.5
2022-11-06T06:15:17.006Z,78.9
2022-11-06T06:16:19.582Z,79.3
2022-11-06T06:17:22.721Z,79.3
2022-11-06T06:18:25.821Z,79.4
2022-11-06T06:19:28.370Z,79.4
2022-11-06T06:20:31.094Z,79.5
2022-11-06T06:21:34.283Z,79.6
2022-11-06T06:22:37.517Z,79.7
2022-11-06T06:23:40.968Z,80.3
2022-11-06T06:24:44.678Z,79.9
2022-11-06T06:25:48.660Z,79.9
2022-11-06T06:26:51.472Z,80
2022-11-06T06:27:54.990Z,79.8
2022-11-06T06:28:58.058Z,79.8
2022-11-06T06:30:01.068Z,79.7
2022-11-06T06:31:04.161Z,79.7
2022-11-06T06:32:07.565Z,79.8
2022-11-06T06:33:10.715Z,79.7
2022-11-06T06:34:13.596Z,79.7
2022-11-06T06:35:16.417Z,79.7
2022-11-06T06:36:19.133Z,79.8
2022-11-06T06:37:22.381Z,79.7
2022-11-06T06:38:25.658Z,79.8
2022-11-06T06:39:28.447Z,79.9
2022-11-06T06:40:31.773Z,79.8
2022-11-06T06:41:35.317Z,79.6
2022-11-06T06:42:38.387Z,79.5
2022-11-06T06:43:41.768Z,79.4
2022-11-06T06:44:44.427Z,79.4
2022-11-06T06:45:47.802Z,79.4
2022-11-06T06:46:50.750Z,79.3
2022-11-06T06:47:53.206Z,79.3
2022-11-06T06:48:56.324Z,79.1
2022-11-06T06:49:59.034Z,79.2
2022-11-06T06:51:02.500Z,79.1
2022-11-06T06:52:05.652Z,79.2
2022-11-06T06:53:09.031Z,79.1
2022-11-06T06:54:12.416Z,79.2
2022-11-06T06:55:15.216Z,79.2
2022-11-06T06:56:17.513Z,79.2
2022-11-06T06:57:20.704Z,79.1
2022-11-06T06:58:25.998Z,79.1
2022-11-06T06:59:28.959Z,78.9
2022-11-06T07:00:32.319Z,78.9
2022-11-06T07:01:36.264Z,78.9
2022-11-06T07:02:39.323Z,78.8
2022-11-06T07:03:42.044Z,78.9
2022-11-06T07:04:45.572Z,79
2022-11-06T07:05:48.378Z,78.7
2022-11-06T07:06:51.340Z,78.7
2022-11-06T07:07:54.327Z,78.5
2022-11-06T07:08:57.432Z,78.5
2022-11-06T07:10:00.219Z,78.4
2022-11-06T07:11:03.391Z,78.5
2022-11-06T07:12:06.558Z,78.4
2022-11-06T07:13:09.663Z,78.3
2022-11-06T07:14:12.857Z,78.2
2022-11-06T07:15:16.096Z,78.3
2022-11-06T07:16:19.447Z,78.2
2022-11-06T07:17:22.843Z,78
2022-11-06T07:18:25.658Z,78.1
2022-11-06T07:19:28.380Z,78
2022-11-06T07:20:32.081Z,77.7
2022-11-06T07:21:35.240Z,77.6
2022-11-06T07:22:38.952Z,77.6
2022-11-06T07:23:42.052Z,77.2
2022-11-06T07:24:45.164Z,77.3
2022-11-06T07:25:48.507Z,77.2
2022-11-06T07:26:51.937Z,76.9
2022-11-06T07:28:03.502Z,76.9
2022-11-06T07:29:07.453Z,76.9
2022-11-06T07:30:09.679Z,76.8
2022-11-06T07:31:13.038Z,76.8
2022-11-06T07:32:16.344Z,76.7
2022-11-06T07:33:19.748Z,76.7
2022-11-06T07:34:22.491Z,76.3
2022-11-06T07:35:25.295Z,76.4
2022-11-06T07:36:27.990Z,76.5
2022-11-06T07:37:31.008Z,76.6
2022-11-06T07:38:35.171Z,76.5
2022-11-06T07:39:38.035Z,76.5
2022-11-06T07:40:40.795Z,76.5
2022-11-06T07:41:43.820Z,76.4
2022-11-06T07:42:46.427Z,76.3
2022-11-06T07:43:50.153Z,76.4
2022-11-06T07:44:53.602Z,76.4
2022-11-06T07:45:56.875Z,76.5
2022-11-06T07:47:00.385Z,76.3
2022-11-06T07:48:03.253Z,76.3
2022-11-06T07:49:06.648Z,76.2
2022-11-06T07:50:09.203Z,76
2022-11-06T07:51:12.005Z,75.9
2022-11-06T07:52:15.528Z,75.9
2022-11-06T07:53:18.516Z,75.9
2022-11-06T07:54:21.984Z,75.9
2022-11-06T07:55:25.696Z,75.8
2022-11-06T07:56:29.069Z,75.9
2022-11-06T07:57:32.133Z,75.8
2022-11-06T07:58:34.952Z,75.7
2022-11-06T07:59:38.687Z,75.5
2022-11-06T08:00:42.040Z,75.5
2022-11-06T08:01:46.263Z,75.8
2022-11-06T08:02:50.186Z,75.4
2022-11-06T08:03:52.975Z,75.4
2022-11-06T08:04:56.537Z,75.2
2022-11-06T08:05:59.873Z,75.1
2022-11-06T08:07:02.471Z,75.1
2022-11-06T08:08:05.186Z,75
2022-11-06T08:09:08.000Z,74.9
2022-11-06T08:10:10.519Z,75
2022-11-06T08:11:13.435Z,74.9
2022-11-06T08:12:16.051Z,74.8
2022-11-06T08:13:18.855Z,74.8
2022-11-06T08:14:21.943Z,74.6
2022-11-06T08:15:25.708Z,74.6
2022-11-06T08:16:29.740Z,74.8
2022-11-06T08:17:33.087Z,75
2022-11-06T08:18:36.914Z,74.5
2022-11-06T08:19:39.345Z,74.4
2022-11-06T08:20:42.786Z,74.5
2022-11-06T08:21:45.885Z,74.4
2022-11-06T08:22:48.325Z,74.3
2022-11-06T08:23:51.215Z,74.2
2022-11-06T08:24:54.638Z,74.2
2022-11-06T08:25:57.366Z,74.2
2022-11-06T08:27:01.106Z,74.2
2022-11-06T08:28:03.906Z,74.3
2022-11-06T08:29:06.144Z,74.3
2022-11-06T08:30:08.857Z,74.1
2022-11-06T08:31:12.149Z,74
2022-11-06T08:32:15.252Z,74.2
2022-11-06T08:33:18.431Z,74.2
2022-11-06T08:34:21.337Z,74.3
2022-11-06T08:35:24.141Z,74.3
2022-11-06T08:36:26.682Z,74.3
2022-11-06T08:37:29.543Z,74.4
2022-11-06T08:38:32.965Z,74.5
2022-11-06T08:39:35.774Z,74.5
2022-11-06T08:40:39.307Z,74.4
2022-11-06T08:41:42.131Z,74.4
2022-11-06T08:42:45.011Z,74.3
2022-11-06T08:43:48.175Z,74.2
2022-11-06T08:44:50.984Z,74.1
2022-11-06T08:45:54.606Z,74.2
2022-11-06T08:46:57.446Z,74.2
2022-11-06T08:48:01.256Z,74.1
2022-11-06T08:49:04.448Z,74.1
2022-11-06T08:50:07.015Z,74.1
2022-11-06T08:51:09.811Z,74
2022-11-06T08:52:13.581Z,74
2022-11-06T08:53:19.227Z,74
2022-11-06T08:54:22.754Z,74.1
2022-11-06T08:55:26.527Z,74.1
2022-11-06T08:56:29.603Z,74.1
2022-11-06T08:57:32.137Z,74.2
2022-11-06T08:58:35.761Z,74
2022-11-06T08:59:38.850Z,73.9
2022-11-06T09:00:42.047Z,73.7
2022-11-06T09:01:45.550Z,73.6
2022-11-06T09:02:48.801Z,73.6
2022-11-06T09:03:51.995Z,73.9
2022-11-06T09:04:55.242Z,73.9
2022-11-06T09:05:58.690Z,73.8
2022-11-06T09:07:01.756Z,73.7
2022-11-06T09:08:04.304Z,73.6
2022-11-06T09:09:07.756Z,73.6
2022-11-06T09:10:10.383Z,73.6
2022-11-06T09:11:13.285Z,73.6
2022-11-06T09:12:16.170Z,73.1
2022-11-06T09:13:19.847Z,73.2
2022-11-06T09:14:22.932Z,73.2
2022-11-06T09:15:26.367Z,73.1
2022-11-06T09:16:29.221Z,73.5
2022-11-06T09:17:32.502Z,73
2022-11-06T09:18:35.808Z,73
2022-11-06T09:19:39.635Z,73
2022-11-06T09:20:43.005Z,73
2022-11-06T09:21:55.964Z,73
2022-11-06T09:22:58.763Z,72.7
2022-11-06T09:24:01.373Z,72.8
2022-11-06T09:25:05.807Z,72.8
2022-11-06T09:26:07.969Z,72.8
2022-11-06T09:27:10.307Z,72.8
2022-11-06T09:28:13.744Z,73.4
2022-11-06T09:29:17.107Z,72.8
2022-11-06T09:30:20.019Z,72.8
2022-11-06T09:31:23.868Z,72.7
2022-11-06T09:32:26.750Z,72.6
2022-11-06T09:33:29.278Z,72.7
2022-11-06T09:34:32.734Z,72.7
2022-11-06T09:35:36.186Z,72.7
2022-11-06T09:36:38.782Z,72.6
2022-11-06T09:37:42.588Z,72.6
2022-11-06T09:38:45.679Z,72.5
2022-11-06T09:39:48.916Z,72.2
2022-11-06T09:40:51.940Z,72.2
2022-11-06T09:41:55.040Z,72.3
2022-11-06T09:42:58.477Z,72.4
2022-11-06T09:44:08.020Z,72.2
2022-11-06T09:45:11.260Z,72.3
2022-11-06T09:46:13.775Z,72.4
2022-11-06T09:47:16.674Z,72.5
2022-11-06T09:48:19.189Z,72.6
2022-11-06T09:49:21.164Z,73
2022-11-06T09:50:24.547Z,72.9
2022-11-06T09:51:28.694Z,73.1
2022-11-06T09:52:33.778Z,73
2022-11-06T09:53:38.177Z,72.7
2022-11-06T09:54:42.425Z,73.1
2022-11-06T09:55:46.474Z,73.3
2022-11-06T09:56:50.454Z,73.1
2022-11-06T09:57:53.618Z,72.9
2022-11-06T09:58:56.130Z,72.8
2022-11-06T09:59:59.210Z,72.8
2022-11-06T10:01:02.307Z,72.7
2022-11-06T10:02:06.869Z,72.7
2022-11-06T10:03:10.097Z,72.6
2022-11-06T10:04:13.002Z,72.6
2022-11-06T10:05:16.352Z,72.8
2022-11-06T10:06:19.372Z,72.7
2022-11-06T10:07:22.553Z,72.5
2022-11-06T10:08:25.624Z,72.5
2022-11-06T10:09:28.788Z,72.6
2022-11-06T10:10:32.125Z,72.7
2022-11-06T10:11:35.175Z,72.3
2022-11-06T10:12:37.701Z,71.9
2022-11-06T10:13:40.971Z,71.4
2022-11-06T10:14:44.349Z,71.1
2022-11-06T10:15:46.791Z,70.7
2022-11-06T10:16:49.700Z,70.1
2022-11-06T10:17:52.412Z,69.6
2022-11-06T10:18:55.801Z,69.5
2022-11-06T10:19:58.806Z,68.7
2022-11-06T10:21:01.692Z,68.1
2022-11-06T10:22:04.310Z,68.5
2022-11-06T10:23:07.789Z,68.6
2022-11-06T10:24:10.572Z,68.8
2022-11-06T10:25:13.959Z,69.2
2022-11-06T10:26:16.936Z,69.4
2022-11-06T10:27:20.113Z,69.4
2022-11-06T10:28:22.920Z,69.7
2022-11-06T10:29:26.181Z,69.8
2022-11-06T10:30:28.986Z,69.6
2022-11-06T10:31:32.157Z,70.1
2022-11-06T10:32:35.171Z,70.4
2022-11-06T10:33:37.976Z,70.3
2022-11-06T10:34:41.695Z,70.1
2022-11-06T10:35:44.719Z,70
2022-11-06T10:36:51.593Z,70.2
2022-11-06T10:37:54.333Z,70
2022-11-06T10:38:57.883Z,69.7
2022-11-06T10:40:01.384Z,69.4
2022-11-06T10:41:04.576Z,69.3
2022-11-06T10:42:07.710Z,69.3
2022-11-06T10:43:10.249Z,69
2022-11-06T10:44:13.881Z,68.5
2022-11-06T10:45:16.766Z,67.9
2022-11-06T10:46:20.173Z,67.6
2022-11-06T10:47:22.888Z,67.1
2022-11-06T10:48:41.920Z,67.1
2022-11-06T10:49:44.842Z,66.7
2022-11-06T10:50:47.562Z,66.1
2022-11-06T10:51:51.294Z,65.1
2022-11-06T10:52:54.347Z,64.8
2022-11-06T10:53:57.783Z,65.4
2022-11-06T10:55:01.065Z,65.6
2022-11-06T10:56:20.939Z,65.4
2022-11-06T10:57:24.569Z,65.5
2022-11-06T10:58:27.670Z,65.8
2022-11-06T10:59:30.968Z,66.1
2022-11-06T11:00:34.503Z,66.3
2022-11-06T11:01:38.752Z,66.7
2022-11-06T11:02:41.746Z,67.1
2022-11-06T11:03:45.651Z,67.4
2022-11-06T11:04:49.837Z,67.5
2022-11-06T11:06:00.619Z,67.9
2022-11-06T11:07:03.161Z,68.2
2022-11-06T11:08:05.954Z,68.4
2022-11-06T11:09:09.412Z,68.3
2022-11-06T11:10:12.875Z,68.4
2022-11-06T11:11:16.118Z,68.5
2022-11-06T11:12:19.562Z,68.7
2022-11-06T11:13:22.446Z,68.7
2022-11-06T11:14:25.842Z,68.8
2022-11-06T11:15:29.286Z,68.4
2022-11-06T11:16:32.935Z,68.5
2022-11-06T11:17:36.088Z,68.3
2022-11-06T11:18:39.434Z,68.1
2022-11-06T11:19:42.171Z,68.2
2022-11-06T11:20:45.064Z,67.8
2022-11-06T11:21:48.433Z,67.7
2022-11-06T11:22:51.867Z,67.3
2022-11-06T11:23:54.728Z,66.3
2022-11-06T11:24:57.832Z,65.6
2022-11-06T11:26:01.648Z,64.3
2022-11-06T11:27:05.397Z,63.8
2022-11-06T11:28:08.189Z,63.8
2022-11-06T11:29:12.225Z,62.4
2022-11-06T11:30:15.355Z,62.1
2022-11-06T11:31:18.551Z,62.3
2022-11-06T11:32:21.434Z,63.1
2022-11-06T11:33:24.306Z,63.4
2022-11-06T11:34:27.189Z,63.5
2022-11-06T11:35:29.798Z,63
2022-11-06T11:36:33.174Z,62.5
2022-11-06T11:37:35.913Z,61.6
2022-11-06T11:38:38.627Z,61.4
2022-11-06T11:39:41.971Z,61.1
2022-11-06T11:40:44.899Z,61.3
2022-11-06T11:41:48.002Z,60.7
2022-11-06T11:42:50.995Z,60.6
2022-11-06T11:43:54.527Z,61.2
2022-11-06T11:44:57.766Z,61.2
2022-11-06T11:46:00.790Z,59.6
2022-11-06T11:47:10.180Z,59.4
2022-11-06T11:48:14.411Z,59.1
2022-11-06T11:49:18.745Z,58.9
2022-11-06T11:50:21.640Z,58.1
2022-11-06T11:51:24.256Z,58.9
2022-11-06T11:52:27.365Z,59.1
2022-11-06T11:53:30.085Z,59.2
2022-11-06T11:54:33.155Z,59.3
2022-11-06T11:55:36.163Z,58.9
2022-11-06T11:57:08.228Z,59.1
2022-11-06T11:58:12.705Z,58.4
2022-11-06T11:59:15.972Z,58.5
2022-11-06T12:00:19.235Z,57.4
2022-11-06T12:01:22.952Z,57
2022-11-06T12:02:29.998Z,56.7
2022-11-06T12:03:33.215Z,56.6
2022-11-06T12:04:36.050Z,56.7
2022-11-06T12:05:38.839Z,56.4
2022-11-06T12:06:41.661Z,56.5
2022-11-06T12:07:47.732Z,56.7
2022-11-06T12:08:50.811Z,56.6
2022-11-06T12:09:53.680Z,57.2
2022-11-06T12:10:56.418Z,57.3
2022-11-06T12:11:59.588Z,57.2
2022-11-06T12:13:02.402Z,57
2022-11-06T12:14:05.578Z,56.9
2022-11-06T12:15:08.665Z,57.2
2022-11-06T12:16:12.489Z,57.1
2022-11-06T12:17:15.507Z,57.4
2022-11-06T12:18:18.860Z,57.2
2022-11-06T12:19:21.578Z,56.8
2022-11-06T12:20:24.937Z,57
2022-11-06T12:21:27.449Z,57.3
2022-11-06T12:22:30.747Z,56.2
2022-11-06T12:23:34.035Z,56.4
2022-11-06T12:24:36.850Z,56.2
2022-11-06T12:25:39.669Z,56.6
2022-11-06T12:26:42.220Z,55.9
2022-11-06T12:27:44.465Z,55.9
2022-11-06T12:28:47.095Z,55.5
2022-11-06T12:29:50.749Z,55.2
2022-11-06T12:30:54.193Z,55.1
2022-11-06T12:31:57.908Z,54.9
2022-11-06T12:33:01.009Z,54.9
2022-11-06T12:34:18.172Z,55.1
2022-11-06T12:35:20.902Z,55.3
2022-11-06T12:36:23.983Z,55.6
2022-11-06T12:37:26.434Z,54.6
2022-11-06T12:38:29.183Z,54.8
2022-11-06T12:39:32.336Z,54.7
2022-11-06T12:40:34.778Z,54.8
2022-11-06T12:41:37.843Z,55.1
2022-11-06T12:42:41.270Z,54.9
2022-11-06T12:43:44.708Z,55.3
2022-11-06T12:44:47.982Z,55.8
2022-11-06T12:45:51.991Z,55.9
2022-11-06T12:46:55.693Z,55.8
2022-11-06T12:47:59.882Z,56
2022-11-06T12:49:02.899Z,56.2
2022-11-06T12:50:06.128Z,56.3
2022-11-06T12:51:08.651Z,56.3
2022-11-06T12:52:12.350Z,56.4
2022-11-06T12:53:15.263Z,56.5
2022-11-06T12:54:19.032Z,56.6
2022-11-06T12:55:22.140Z,56.5
2022-11-06T12:56:25.288Z,56.7
2022-11-06T12:57:27.805Z,57.2
2022-11-06T12:58:30.896Z,57.5
2022-11-06T12:59:34.359Z,57.8
2022-11-06T13:00:37.748Z,57.9
2022-11-06T13:01:41.840Z,57.8
2022-11-06T13:02:45.368Z,57.6
2022-11-06T13:03:49.405Z,57.7
2022-11-06T13:04:52.675Z,58
2022-11-06T13:05:56.137Z,58
2022-11-06T13:06:58.667Z,58.1
2022-11-06T13:08:01.737Z,58.1
2022-11-06T13:09:04.809Z,58.1
2022-11-06T13:10:07.791Z,58.3
2022-11-06T13:11:11.327Z,58.4
2022-11-06T13:12:14.746Z,58.5
2022-11-06T13:13:17.817Z,58.7
2022-11-06T13:14:20.279Z,58.6
2022-11-06T13:15:22.890Z,58.8
2022-11-06T13:16:26.370Z,59
2022-11-06T13:17:29.547Z,58.7
2022-11-06T13:18:32.416Z,58.7
2022-11-06T13:19:36.328Z,58.9
2022-11-06T13:20:39.149Z,59.6
2022-11-06T13:21:42.407Z,59.9
2022-11-06T13:22:45.756Z,60.2
2022-11-06T13:23:49.212Z,60.6
2022-11-06T13:24:51.732Z,60.9
2022-11-06T13:25:55.203Z,61.1
2022-11-06T13:26:58.584Z,61.1
2022-11-06T13:28:01.772Z,61.6
2022-11-06T13:29:04.356Z,62.1
2022-11-06T13:30:07.870Z,62.3
2022-11-06T13:31:10.945Z,62.8
2022-11-06T13:32:14.152Z,63.2
2022-11-06T13:33:17.888Z,63.4
2022-11-06T13:34:21.268Z,63.7
2022-11-06T13:35:24.714Z,63.9
2022-11-06T13:36:26.977Z,63.7
2022-11-06T13:37:30.088Z,63.6
2022-11-06T13:38:32.604Z,64
2022-11-06T13:39:35.949Z,64.1
2022-11-06T13:40:38.766Z,64.1
2022-11-06T13:41:41.577Z,64.2
2022-11-06T13:42:44.467Z,64.1
2022-11-06T13:43:46.901Z,64.1
2022-11-06T13:44:49.975Z,64.1
2022-11-06T13:45:52.128Z,64.1
2022-11-06T13:46:54.928Z,64.2
2022-11-06T13:47:57.065Z,64.3
2022-11-06T13:49:00.800Z,64.3
2022-11-06T13:50:03.309Z,64.4
2022-11-06T13:51:06.830Z,64.5
2022-11-06T13:52:10.027Z,64.9
2022-11-06T13:53:12.484Z,64.7
2022-11-06T13:54:15.763Z,64.9
2022-11-06T13:55:18.777Z,65
2022-11-06T13:56:21.341Z,65
2022-11-06T13:57:24.087Z,65.1
2022-11-06T13:58:26.601Z,65.1
2022-11-06T13:59:35.493Z,65.4
2022-11-06T14:00:38.298Z,65.3
2022-11-06T14:01:42.071Z,65.2
2022-11-06T14:02:45.898Z,65.3
2022-11-06T14:03:49.857Z,65.4
2022-11-06T14:04:55.113Z,65.4
2022-11-06T14:05:58.232Z,65.8
2022-11-06T14:07:01.720Z,65.7
2022-11-06T14:08:04.609Z,65.9
2022-11-06T14:09:07.913Z,66